sensor_id;sensor_type;location;lat;lon;timestamp;temperature;humidity
64620;DHT22;51029;51.058;13.826;2023-05-07T00:00:32;11.20;99.90
64620;DHT22;51029;51.058;13.826;2023-05-07T00:02:59;11.20;99.90
64620;DHT22;51029;51.058;13.826;2023-05-07T00:05:25;11.20;99.90
64620;DHT22;51029;51.058;13.826;2023-05-07T00:07:51;11.10;99.90
64620;DHT22;51029;51.058;13.826;2023-05-07T00:10:18;11.10;99.90
64620;DHT22;51029;51.058;13.826;2023-05-07T00:12:44;11.10;99.90
64620;DHT22;51029;51.058;13.826;2023-05-07T00:15:10;11.10;99.90
64620;DHT22;51029;51.058;13.826;2023-05-07T00:17:35;11.10;99.90
64620;DHT22;51029;51.058;13.826;2023-05-07T00:20:02;11.10;99.90
64620;DHT22;51029;51.058;13.826;2023-05-07T00:22:28;11.10;99.90
64620;DHT22;51029;51.058;13.826;2023-05-07T00:24:55;11.10;99.90
64620;DHT22;51029;51.058;13.826;2023-05-07T00:27:21;11.10;99.90
64620;DHT22;51029;51.058;13.826;2023-05-07T00:29:46;11.10;99.90
64620;DHT22;51029;51.058;13.826;2023-05-07T00:32:12;11.10;99.90
64620;DHT22;51029;51.058;13.826;2023-05-07T00:34:37;11.00;99.90
64620;DHT22;51029;51.058;13.826;2023-05-07T00:37:04;11.00;99.90
64620;DHT22;51029;51.058;13.826;2023-05-07T00:39:30;11.00;99.90
64620;DHT22;51029;51.058;13.826;2023-05-07T00:41:55;10.90;99.90
64620;DHT22;51029;51.058;13.826;2023-05-07T00:44:21;10.90;99.90
64620;DHT22;51029;51.058;13.826;2023-05-07T00:46:46;11.00;99.90
64620;DHT22;51029;51.058;13.826;2023-05-07T00:49:15;11.00;99.90
64620;DHT22;51029;51.058;13.826;2023-05-07T00:51:41;11.00;99.90
64620;DHT22;51029;51.058;13.826;2023-05-07T00:54:08;11.00;99.90
64620;DHT22;51029;51.058;13.826;2023-05-07T00:56:34;11.00;99.90
64620;DHT22;51029;51.058;13.826;2023-05-07T00:59:01;11.00;99.90
64620;DHT22;51029;51.058;13.826;2023-05-07T01:01:27;11.00;99.90
64620;DHT22;51029;51.058;13.826;2023-05-07T01:03:53;11.00;99.90
64620;DHT22;51029;51.058;13.826;2023-05-07T01:06:19;10.90;99.90
64620;DHT22;51029;51.058;13.826;2023-05-07T01:08:46;10.90;99.90
64620;DHT22;51029;51.058;13.826;2023-05-07T01:11:13;10.90;99.90
64620;DHT22;51029;51.058;13.826;2023-05-07T01:13:39;11.00;99.90
64620;DHT22;51029;51.058;13.826;2023-05-07T01:16:05;11.00;99.90
64620;DHT22;51029;51.058;13.826;2023-05-07T01:18:32;10.90;99.90
64620;DHT22;51029;51.058;13.826;2023-05-07T01:20:58;10.90;99.90
64620;DHT22;51029;51.058;13.826;2023-05-07T01:23:25;10.90;99.90
64620;DHT22;51029;51.058;13.826;2023-05-07T01:25:52;10.90;99.90
64620;DHT22;51029;51.058;13.826;2023-05-07T01:28:18;10.90;99.90
64620;DHT22;51029;51.058;13.826;2023-05-07T01:30:48;10.90;99.90
64620;DHT22;51029;51.058;13.826;2023-05-07T01:33:16;10.90;99.90
64620;DHT22;51029;51.058;13.826;2023-05-07T01:35:45;10.90;99.90
64620;DHT22;51029;51.058;13.826;2023-05-07T01:38:13;10.90;99.90
64620;DHT22;51029;51.058;13.826;2023-05-07T01:40:39;10.90;99.90
64620;DHT22;51029;51.058;13.826;2023-05-07T01:43:05;10.80;99.90
64620;DHT22;51029;51.058;13.826;2023-05-07T01:45:31;10.80;99.90
64620;DHT22;51029;51.058;13.826;2023-05-07T01:47:58;10.80;99.90
64620;DHT22;51029;51.058;13.826;2023-05-07T01:50:25;10.80;99.90
64620;DHT22;51029;51.058;13.826;2023-05-07T01:52:51;10.80;99.90
64620;DHT22;51029;51.058;13.826;2023-05-07T01:55:17;10.70;99.90
64620;DHT22;51029;51.058;13.826;2023-05-07T01:57:43;10.80;99.90
64620;DHT22;51029;51.058;13.826;2023-05-07T02:00:09;10.80;99.90
64620;DHT22;51029;51.058;13.826;2023-05-07T02:02:35;10.70;99.90
64620;DHT22;51029;51.058;13.826;2023-05-07T02:05:00;10.70;99.90
64620;DHT22;51029;51.058;13.826;2023-05-07T02:07:27;10.70;99.90
64620;DHT22;51029;51.058;13.826;2023-05-07T02:09:53;10.70;99.90
64620;DHT22;51029;51.058;13.826;2023-05-07T02:12:19;10.70;99.90
64620;DHT22;51029;51.058;13.826;2023-05-07T02:14:44;10.80;99.90
64620;DHT22;51029;51.058;13.826;2023-05-07T02:17:10;10.70;99.90
64620;DHT22;51029;51.058;13.826;2023-05-07T02:19:35;10.70;99.90
64620;DHT22;51029;51.058;13.826;2023-05-07T02:22:01;10.70;99.90
64620;DHT22;51029;51.058;13.826;2023-05-07T02:24:26;10.70;99.90
64620;DHT22;51029;51.058;13.826;2023-05-07T02:26:52;10.70;99.90
64620;DHT22;51029;51.058;13.826;2023-05-07T02:29:17;10.60;99.90
64620;DHT22;51029;51.058;13.826;2023-05-07T02:31:43;10.60;99.90
64620;DHT22;51029;51.058;13.826;2023-05-07T02:34:08;10.60;99.90
64620;DHT22;51029;51.058;13.826;2023-05-07T02:36:34;10.60;99.90
64620;DHT22;51029;51.058;13.826;2023-05-07T02:39:00;10.60;99.90
64620;DHT22;51029;51.058;13.826;2023-05-07T02:41:25;10.60;99.90
64620;DHT22;51029;51.058;13.826;2023-05-07T02:43:53;10.60;99.90
64620;DHT22;51029;51.058;13.826;2023-05-07T02:46:18;10.60;99.90
64620;DHT22;51029;51.058;13.826;2023-05-07T02:48:44;10.60;99.90
64620;DHT22;51029;51.058;13.826;2023-05-07T02:51:09;10.50;99.90
64620;DHT22;51029;51.058;13.826;2023-05-07T02:53:35;10.50;99.90
64620;DHT22;51029;51.058;13.826;2023-05-07T02:56:01;10.50;99.90
64620;DHT22;51029;51.058;13.826;2023-05-07T02:58:27;10.50;99.90
64620;DHT22;51029;51.058;13.826;2023-05-07T03:00:53;10.50;99.90
64620;DHT22;51029;51.058;13.826;2023-05-07T03:03:20;10.40;99.90
64620;DHT22;51029;51.058;13.826;2023-05-07T03:05:45;10.50;99.90
64620;DHT22;51029;51.058;13.826;2023-05-07T03:08:11;10.40;99.90
64620;DHT22;51029;51.058;13.826;2023-05-07T03:10:37;10.40;99.90
64620;DHT22;51029;51.058;13.826;2023-05-07T03:13:03;10.40;99.90
64620;DHT22;51029;51.058;13.826;2023-05-07T03:15:29;10.20;99.90
64620;DHT22;51029;51.058;13.826;2023-05-07T03:17:55;10.30;99.90
64620;DHT22;51029;51.058;13.826;2023-05-07T03:20:20;10.30;99.90
64620;DHT22;51029;51.058;13.826;2023-05-07T03:22:46;10.30;99.90
64620;DHT22;51029;51.058;13.826;2023-05-07T03:25:12;10.30;99.90
64620;DHT22;51029;51.058;13.826;2023-05-07T03:27:38;10.20;99.90
64620;DHT22;51029;51.058;13.826;2023-05-07T03:30:04;10.30;99.90
64620;DHT22;51029;51.058;13.826;2023-05-07T03:32:29;10.20;99.90
64620;DHT22;51029;51.058;13.826;2023-05-07T03:34:55;10.20;99.90
64620;DHT22;51029;51.058;13.826;2023-05-07T03:37:21;10.20;99.90
64620;DHT22;51029;51.058;13.826;2023-05-07T03:39:47;10.20;99.90
64620;DHT22;51029;51.058;13.826;2023-05-07T03:42:12;10.20;99.90
64620;DHT22;51029;51.058;13.826;2023-05-07T03:44:38;10.20;99.90
64620;DHT22;51029;51.058;13.826;2023-05-07T03:47:04;10.20;99.90
64620;DHT22;51029;51.058;13.826;2023-05-07T03:49:29;10.20;99.90
64620;DHT22;51029;51.058;13.826;2023-05-07T03:51:55;10.20;99.90
64620;DHT22;51029;51.058;13.826;2023-05-07T03:54:21;10.20;99.90
64620;DHT22;51029;51.058;13.826;2023-05-07T03:56:46;10.10;99.90
64620;DHT22;51029;51.058;13.826;2023-05-07T03:59:12;10.20;99.90
64620;DHT22;51029;51.058;13.826;2023-05-07T04:01:38;10.20;99.90
64620;DHT22;51029;51.058;13.826;2023-05-07T04:04:04;10.20;99.90
64620;DHT22;51029;51.058;13.826;2023-05-07T04:06:30;10.20;99.90
64620;DHT22;51029;51.058;13.826;2023-05-07T04:08:56;10.30;99.90
64620;DHT22;51029;51.058;13.826;2023-05-07T04:11:22;10.30;99.90
64620;DHT22;51029;51.058;13.826;2023-05-07T04:13:47;10.30;99.90
64620;DHT22;51029;51.058;13.826;2023-05-07T04:16:13;10.30;99.90
64620;DHT22;51029;51.058;13.826;2023-05-07T04:18:38;10.30;99.90
64620;DHT22;51029;51.058;13.826;2023-05-07T04:21:04;10.30;99.90
64620;DHT22;51029;51.058;13.826;2023-05-07T04:23:30;10.30;99.90
64620;DHT22;51029;51.058;13.826;2023-05-07T04:25:56;10.20;99.90
64620;DHT22;51029;51.058;13.826;2023-05-07T04:28:22;10.30;99.90
64620;DHT22;51029;51.058;13.826;2023-05-07T04:30:48;10.30;99.90
64620;DHT22;51029;51.058;13.826;2023-05-07T04:33:14;10.30;99.90
64620;DHT22;51029;51.058;13.826;2023-05-07T04:35:42;10.30;99.90
64620;DHT22;51029;51.058;13.826;2023-05-07T04:38:08;10.30;99.90
64620;DHT22;51029;51.058;13.826;2023-05-07T04:40:35;10.40;99.90
64620;DHT22;51029;51.058;13.826;2023-05-07T04:43:01;10.50;99.90
64620;DHT22;51029;51.058;13.826;2023-05-07T04:45:26;10.50;99.90
64620;DHT22;51029;51.058;13.826;2023-05-07T04:47:52;10.60;99.90
64620;DHT22;51029;51.058;13.826;2023-05-07T04:50:18;10.60;99.90
64620;DHT22;51029;51.058;13.826;2023-05-07T04:52:44;10.60;99.90
64620;DHT22;51029;51.058;13.826;2023-05-07T04:55:10;10.60;99.90
64620;DHT22;51029;51.058;13.826;2023-05-07T04:57:36;10.70;99.90
64620;DHT22;51029;51.058;13.826;2023-05-07T05:00:03;10.70;99.90
64620;DHT22;51029;51.058;13.826;2023-05-07T05:02:29;10.70;99.90
64620;DHT22;51029;51.058;13.826;2023-05-07T05:04:55;10.70;99.90
64620;DHT22;51029;51.058;13.826;2023-05-07T05:07:20;10.80;99.90
64620;DHT22;51029;51.058;13.826;2023-05-07T05:09:46;10.80;99.90
64620;DHT22;51029;51.058;13.826;2023-05-07T05:12:11;10.90;99.90
64620;DHT22;51029;51.058;13.826;2023-05-07T05:14:37;10.90;99.90
64620;DHT22;51029;51.058;13.826;2023-05-07T05:17:02;10.80;99.90
64620;DHT22;51029;51.058;13.826;2023-05-07T05:19:28;10.90;99.90
64620;DHT22;51029;51.058;13.826;2023-05-07T05:21:54;10.90;99.90
64620;DHT22;51029;51.058;13.826;2023-05-07T05:24:19;11.10;99.90
64620;DHT22;51029;51.058;13.826;2023-05-07T05:26:45;11.20;99.90
64620;DHT22;51029;51.058;13.826;2023-05-07T05:29:11;11.30;99.90
64620;DHT22;51029;51.058;13.826;2023-05-07T05:31:36;11.40;99.90
64620;DHT22;51029;51.058;13.826;2023-05-07T05:34:02;11.60;99.90
64620;DHT22;51029;51.058;13.826;2023-05-07T05:36:28;11.60;99.90
64620;DHT22;51029;51.058;13.826;2023-05-07T05:38:53;11.60;99.90
64620;DHT22;51029;51.058;13.826;2023-05-07T05:41:19;11.60;99.90
64620;DHT22;51029;51.058;13.826;2023-05-07T05:43:44;11.60;99.90
64620;DHT22;51029;51.058;13.826;2023-05-07T05:46:09;11.50;99.90
64620;DHT22;51029;51.058;13.826;2023-05-07T05:48:36;11.60;99.90
64620;DHT22;51029;51.058;13.826;2023-05-07T05:51:02;11.60;99.90
64620;DHT22;51029;51.058;13.826;2023-05-07T05:53:28;11.50;99.90
64620;DHT22;51029;51.058;13.826;2023-05-07T05:55:53;11.60;99.90
64620;DHT22;51029;51.058;13.826;2023-05-07T05:58:19;11.60;99.90
64620;DHT22;51029;51.058;13.826;2023-05-07T06:00:46;11.60;99.90
64620;DHT22;51029;51.058;13.826;2023-05-07T06:03:11;11.60;99.90
64620;DHT22;51029;51.058;13.826;2023-05-07T06:05:37;11.50;99.90
64620;DHT22;51029;51.058;13.826;2023-05-07T06:08:02;11.50;99.90
64620;DHT22;51029;51.058;13.826;2023-05-07T06:10:28;11.50;99.90
64620;DHT22;51029;51.058;13.826;2023-05-07T06:12:55;11.50;99.90
64620;DHT22;51029;51.058;13.826;2023-05-07T06:15:20;11.50;99.90
64620;DHT22;51029;51.058;13.826;2023-05-07T06:17:46;11.70;99.90
64620;DHT22;51029;51.058;13.826;2023-05-07T06:20:11;11.90;99.90
64620;DHT22;51029;51.058;13.826;2023-05-07T06:22:37;11.90;99.90
64620;DHT22;51029;51.058;13.826;2023-05-07T06:25:02;11.90;99.90
64620;DHT22;51029;51.058;13.826;2023-05-07T06:27:28;11.80;99.90
64620;DHT22;51029;51.058;13.826;2023-05-07T06:29:53;11.70;99.90
64620;DHT22;51029;51.058;13.826;2023-05-07T06:32:19;11.80;99.90
64620;DHT22;51029;51.058;13.826;2023-05-07T06:34:44;11.80;99.90
64620;DHT22;51029;51.058;13.826;2023-05-07T06:37:10;11.80;99.90
64620;DHT22;51029;51.058;13.826;2023-05-07T06:39:35;11.80;99.90
64620;DHT22;51029;51.058;13.826;2023-05-07T06:42:01;11.80;99.90
64620;DHT22;51029;51.058;13.826;2023-05-07T06:44:27;11.70;99.90
64620;DHT22;51029;51.058;13.826;2023-05-07T06:46:53;11.60;99.90
64620;DHT22;51029;51.058;13.826;2023-05-07T06:49:19;11.50;99.90
64620;DHT22;51029;51.058;13.826;2023-05-07T06:51:44;11.50;99.90
64620;DHT22;51029;51.058;13.826;2023-05-07T06:54:10;11.40;99.90
64620;DHT22;51029;51.058;13.826;2023-05-07T06:56:35;11.30;99.90
64620;DHT22;51029;51.058;13.826;2023-05-07T06:59:02;11.40;99.90
64620;DHT22;51029;51.058;13.826;2023-05-07T07:01:28;11.20;99.90
64620;DHT22;51029;51.058;13.826;2023-05-07T07:03:53;11.30;99.90
64620;DHT22;51029;51.058;13.826;2023-05-07T07:06:19;11.30;99.90
64620;DHT22;51029;51.058;13.826;2023-05-07T07:08:44;11.40;99.90
64620;DHT22;51029;51.058;13.826;2023-05-07T07:11:10;11.50;99.90
64620;DHT22;51029;51.058;13.826;2023-05-07T07:13:35;11.50;99.90
64620;DHT22;51029;51.058;13.826;2023-05-07T07:16:01;11.60;99.90
64620;DHT22;51029;51.058;13.826;2023-05-07T07:18:27;11.70;99.90
64620;DHT22;51029;51.058;13.826;2023-05-07T07:20:52;11.80;99.90
64620;DHT22;51029;51.058;13.826;2023-05-07T07:23:18;11.70;99.90
64620;DHT22;51029;51.058;13.826;2023-05-07T07:25:44;11.70;99.90
64620;DHT22;51029;51.058;13.826;2023-05-07T07:28:09;11.60;99.90
64620;DHT22;51029;51.058;13.826;2023-05-07T07:30:36;11.70;99.90
64620;DHT22;51029;51.058;13.826;2023-05-07T07:33:01;11.60;99.90
64620;DHT22;51029;51.058;13.826;2023-05-07T07:35:29;11.60;99.90
64620;DHT22;51029;51.058;13.826;2023-05-07T07:37:55;11.60;99.90
64620;DHT22;51029;51.058;13.826;2023-05-07T07:40:20;11.50;99.90
64620;DHT22;51029;51.058;13.826;2023-05-07T07:42:46;11.50;99.90
64620;DHT22;51029;51.058;13.826;2023-05-07T07:45:11;11.50;99.90
64620;DHT22;51029;51.058;13.826;2023-05-07T07:47:38;11.50;99.90
64620;DHT22;51029;51.058;13.826;2023-05-07T07:50:04;11.50;99.90
64620;DHT22;51029;51.058;13.826;2023-05-07T07:52:29;11.50;99.90
64620;DHT22;51029;51.058;13.826;2023-05-07T07:54:55;11.50;99.90
64620;DHT22;51029;51.058;13.826;2023-05-07T07:57:20;11.50;99.90
64620;DHT22;51029;51.058;13.826;2023-05-07T07:59:46;11.50;99.90
64620;DHT22;51029;51.058;13.826;2023-05-07T08:02:11;11.50;99.90
64620;DHT22;51029;51.058;13.826;2023-05-07T08:04:37;11.40;99.90
64620;DHT22;51029;51.058;13.826;2023-05-07T08:07:03;11.50;99.90
64620;DHT22;51029;51.058;13.826;2023-05-07T08:09:28;11.60;99.90
64620;DHT22;51029;51.058;13.826;2023-05-07T08:11:54;11.80;99.90
64620;DHT22;51029;51.058;13.826;2023-05-07T08:14:20;12.00;99.90
64620;DHT22;51029;51.058;13.826;2023-05-07T08:16:45;12.10;99.90
64620;DHT22;51029;51.058;13.826;2023-05-07T08:19:11;12.10;99.90
64620;DHT22;51029;51.058;13.826;2023-05-07T08:21:39;12.20;99.90
64620;DHT22;51029;51.058;13.826;2023-05-07T08:24:05;12.30;99.90
64620;DHT22;51029;51.058;13.826;2023-05-07T08:26:31;12.30;99.90
64620;DHT22;51029;51.058;13.826;2023-05-07T08:28:56;12.30;99.90
64620;DHT22;51029;51.058;13.826;2023-05-07T08:31:22;12.20;99.90
64620;DHT22;51029;51.058;13.826;2023-05-07T08:33:47;12.30;99.90
64620;DHT22;51029;51.058;13.826;2023-05-07T08:36:13;12.40;99.90
64620;DHT22;51029;51.058;13.826;2023-05-07T08:38:38;12.50;99.90
64620;DHT22;51029;51.058;13.826;2023-05-07T08:41:06;12.80;99.90
64620;DHT22;51029;51.058;13.826;2023-05-07T08:43:33;12.80;99.90
64620;DHT22;51029;51.058;13.826;2023-05-07T08:46:01;12.80;99.90
64620;DHT22;51029;51.058;13.826;2023-05-07T08:48:29;12.60;99.90
64620;DHT22;51029;51.058;13.826;2023-05-07T08:50:58;12.40;99.90
64620;DHT22;51029;51.058;13.826;2023-05-07T08:53:23;12.50;99.90
64620;DHT22;51029;51.058;13.826;2023-05-07T08:55:49;12.50;99.90
64620;DHT22;51029;51.058;13.826;2023-05-07T08:58:15;12.40;99.90
64620;DHT22;51029;51.058;13.826;2023-05-07T09:00:41;12.40;99.90
64620;DHT22;51029;51.058;13.826;2023-05-07T09:03:07;12.70;99.90
64620;DHT22;51029;51.058;13.826;2023-05-07T09:05:33;13.20;99.90
64620;DHT22;51029;51.058;13.826;2023-05-07T09:08:06;13.60;99.90
64620;DHT22;51029;51.058;13.826;2023-05-07T09:10:33;13.40;99.90
64620;DHT22;51029;51.058;13.826;2023-05-07T09:12:59;13.20;99.90
64620;DHT22;51029;51.058;13.826;2023-05-07T09:15:25;13.00;99.90
64620;DHT22;51029;51.058;13.826;2023-05-07T09:17:51;12.90;99.90
64620;DHT22;51029;51.058;13.826;2023-05-07T09:20:16;12.80;99.90
64620;DHT22;51029;51.058;13.826;2023-05-07T09:22:42;12.80;99.90
64620;DHT22;51029;51.058;13.826;2023-05-07T09:25:09;12.70;99.90
64620;DHT22;51029;51.058;13.826;2023-05-07T09:27:35;12.80;99.90
64620;DHT22;51029;51.058;13.826;2023-05-07T09:30:08;12.80;99.90
64620;DHT22;51029;51.058;13.826;2023-05-07T09:32:37;13.10;99.90
64620;DHT22;51029;51.058;13.826;2023-05-07T09:35:06;13.30;99.90
64620;DHT22;51029;51.058;13.826;2023-05-07T09:37:32;13.50;99.90
64620;DHT22;51029;51.058;13.826;2023-05-07T09:39:58;13.80;99.90
64620;DHT22;51029;51.058;13.826;2023-05-07T09:42:24;14.00;99.90
64620;DHT22;51029;51.058;13.826;2023-05-07T09:44:52;14.00;99.90
64620;DHT22;51029;51.058;13.826;2023-05-07T09:47:24;13.40;99.90
64620;DHT22;51029;51.058;13.826;2023-05-07T09:49:52;13.30;99.90
64620;DHT22;51029;51.058;13.826;2023-05-07T09:52:21;13.10;99.90
64620;DHT22;51029;51.058;13.826;2023-05-07T09:54:47;13.00;99.90
64620;DHT22;51029;51.058;13.826;2023-05-07T09:57:13;12.80;99.90
64620;DHT22;51029;51.058;13.826;2023-05-07T09:59:42;12.90;99.90
64620;DHT22;51029;51.058;13.826;2023-05-07T10:02:09;13.20;99.90
64620;DHT22;51029;51.058;13.826;2023-05-07T10:04:35;13.60;99.90
64620;DHT22;51029;51.058;13.826;2023-05-07T10:07:03;14.00;99.90
64620;DHT22;51029;51.058;13.826;2023-05-07T10:09:29;14.20;99.90
64620;DHT22;51029;51.058;13.826;2023-05-07T10:11:56;14.20;99.90
64620;DHT22;51029;51.058;13.826;2023-05-07T10:14:22;14.30;99.90
64620;DHT22;51029;51.058;13.826;2023-05-07T10:16:48;14.30;99.90
64620;DHT22;51029;51.058;13.826;2023-05-07T10:19:14;14.40;99.90
64620;DHT22;51029;51.058;13.826;2023-05-07T10:21:44;14.40;99.90
64620;DHT22;51029;51.058;13.826;2023-05-07T10:24:20;14.40;99.90
64620;DHT22;51029;51.058;13.826;2023-05-07T10:26:49;14.50;99.90
64620;DHT22;51029;51.058;13.826;2023-05-07T10:29:25;14.40;99.90
64620;DHT22;51029;51.058;13.826;2023-05-07T10:31:58;14.40;99.90
64620;DHT22;51029;51.058;13.826;2023-05-07T10:34:29;14.30;99.90
64620;DHT22;51029;51.058;13.826;2023-05-07T10:36:58;14.10;99.90
64620;DHT22;51029;51.058;13.826;2023-05-07T10:39:24;14.10;99.90
64620;DHT22;51029;51.058;13.826;2023-05-07T10:41:49;14.40;99.90
64620;DHT22;51029;51.058;13.826;2023-05-07T10:44:28;15.00;99.90
64620;DHT22;51029;51.058;13.826;2023-05-07T10:47:15;15.40;99.90
64620;DHT22;51029;51.058;13.826;2023-05-07T10:52:18;15.40;99.90
64620;DHT22;51029;51.058;13.826;2023-05-07T10:54:45;15.20;99.90
64620;DHT22;51029;51.058;13.826;2023-05-07T10:57:35;15.50;99.90
64620;DHT22;51029;51.058;13.826;2023-05-07T11:00:02;15.90;99.90
64620;DHT22;51029;51.058;13.826;2023-05-07T11:05:31;16.40;99.90
64620;DHT22;51029;51.058;13.826;2023-05-07T11:07:59;16.30;99.90
64620;DHT22;51029;51.058;13.826;2023-05-07T11:13:12;16.20;99.90
64620;DHT22;51029;51.058;13.826;2023-05-07T11:15:39;16.10;99.90
64620;DHT22;51029;51.058;13.826;2023-05-07T11:18:07;16.00;99.90
64620;DHT22;51029;51.058;13.826;2023-05-07T11:20:55;16.00;99.90
64620;DHT22;51029;51.058;13.826;2023-05-07T11:28:30;15.20;99.90
64620;DHT22;51029;51.058;13.826;2023-05-07T11:30:56;15.20;99.90
64620;DHT22;51029;51.058;13.826;2023-05-07T11:33:23;15.50;99.90
64620;DHT22;51029;51.058;13.826;2023-05-07T11:35:51;15.80;99.90
64620;DHT22;51029;51.058;13.826;2023-05-07T11:38:18;15.70;99.90
64620;DHT22;51029;51.058;13.826;2023-05-07T11:40:57;15.60;99.90
64620;DHT22;51029;51.058;13.826;2023-05-07T11:43:24;15.30;99.90
64620;DHT22;51029;51.058;13.826;2023-05-07T11:45:50;15.20;99.90
64620;DHT22;51029;51.058;13.826;2023-05-07T11:48:16;15.20;99.90
64620;DHT22;51029;51.058;13.826;2023-05-07T11:50:51;15.30;99.90
64620;DHT22;51029;51.058;13.826;2023-05-07T11:53:18;15.50;99.90
64620;DHT22;51029;51.058;13.826;2023-05-07T11:55:44;15.60;99.90
64620;DHT22;51029;51.058;13.826;2023-05-07T11:58:12;15.50;99.90
64620;DHT22;51029;51.058;13.826;2023-05-07T12:00:37;15.70;99.90
64620;DHT22;51029;51.058;13.826;2023-05-07T12:03:04;15.70;99.90
64620;DHT22;51029;51.058;13.826;2023-05-07T12:05:30;15.70;99.90
64620;DHT22;51029;51.058;13.826;2023-05-07T12:07:59;15.70;99.90
64620;DHT22;51029;51.058;13.826;2023-05-07T12:10:25;15.80;99.90
64620;DHT22;51029;51.058;13.826;2023-05-07T12:12:50;15.90;99.90
64620;DHT22;51029;51.058;13.826;2023-05-07T12:15:16;16.20;99.90
64620;DHT22;51029;51.058;13.826;2023-05-07T12:17:43;16.40;99.90
64620;DHT22;51029;51.058;13.826;2023-05-07T12:20:09;16.50;99.90
64620;DHT22;51029;51.058;13.826;2023-05-07T12:22:36;16.50;99.90
64620;DHT22;51029;51.058;13.826;2023-05-07T12:25:01;16.40;99.90
64620;DHT22;51029;51.058;13.826;2023-05-07T12:27:28;16.10;99.90
64620;DHT22;51029;51.058;13.826;2023-05-07T12:29:54;16.20;99.90
64620;DHT22;51029;51.058;13.826;2023-05-07T12:32:21;16.20;99.90
64620;DHT22;51029;51.058;13.826;2023-05-07T12:34:50;16.10;99.90
64620;DHT22;51029;51.058;13.826;2023-05-07T12:37:16;16.00;99.90
64620;DHT22;51029;51.058;13.826;2023-05-07T12:39:47;16.00;99.90
64620;DHT22;51029;51.058;13.826;2023-05-07T12:42:16;16.30;99.90
64620;DHT22;51029;51.058;13.826;2023-05-07T12:44:46;16.60;99.90
64620;DHT22;51029;51.058;13.826;2023-05-07T12:47:11;17.40;99.90
64620;DHT22;51029;51.058;13.826;2023-05-07T12:49:38;18.50;99.90
64620;DHT22;51029;51.058;13.826;2023-05-07T12:52:04;19.30;99.90
64620;DHT22;51029;51.058;13.826;2023-05-07T12:54:31;20.20;99.90
64620;DHT22;51029;51.058;13.826;2023-05-07T12:57:04;20.40;99.90
64620;DHT22;51029;51.058;13.826;2023-05-07T12:59:35;20.00;99.90
64620;DHT22;51029;51.058;13.826;2023-05-07T13:02:01;21.50;99.90
64620;DHT22;51029;51.058;13.826;2023-05-07T13:04:27;24.60;99.90
64620;DHT22;51029;51.058;13.826;2023-05-07T13:06:52;29.10;91.80
64620;DHT22;51029;51.058;13.826;2023-05-07T13:09:18;31.50;71.90
64620;DHT22;51029;51.058;13.826;2023-05-07T13:11:43;33.00;55.80
64620;DHT22;51029;51.058;13.826;2023-05-07T13:14:09;32.20;49.70
64620;DHT22;51029;51.058;13.826;2023-05-07T13:16:34;31.80;52.00
64620;DHT22;51029;51.058;13.826;2023-05-07T13:19:00;32.30;49.10
64620;DHT22;51029;51.058;13.826;2023-05-07T13:21:25;30.60;49.40
64620;DHT22;51029;51.058;13.826;2023-05-07T13:23:52;28.40;52.30
64620;DHT22;51029;51.058;13.826;2023-05-07T13:26:17;26.80;57.30
64620;DHT22;51029;51.058;13.826;2023-05-07T13:28:43;25.00;65.70
64620;DHT22;51029;51.058;13.826;2023-05-07T13:31:09;23.90;69.70
64620;DHT22;51029;51.058;13.826;2023-05-07T13:33:34;23.20;75.90
64620;DHT22;51029;51.058;13.826;2023-05-07T13:36:00;22.60;81.00
64620;DHT22;51029;51.058;13.826;2023-05-07T13:38:26;24.60;82.20
64620;DHT22;51029;51.058;13.826;2023-05-07T13:40:52;29.10;64.60
64620;DHT22;51029;51.058;13.826;2023-05-07T13:43:17;30.30;54.20
64620;DHT22;51029;51.058;13.826;2023-05-07T13:45:44;29.30;54.20
64620;DHT22;51029;51.058;13.826;2023-05-07T13:48:09;28.20;55.70
64620;DHT22;51029;51.058;13.826;2023-05-07T13:50:35;27.00;57.60
64620;DHT22;51029;51.058;13.826;2023-05-07T13:53:00;26.90;60.00
64620;DHT22;51029;51.058;13.826;2023-05-07T13:55:28;26.20;60.90
64620;DHT22;51029;51.058;13.826;2023-05-07T13:57:59;26.30;62.60
64620;DHT22;51029;51.058;13.826;2023-05-07T14:00:26;26.80;58.90
64620;DHT22;51029;51.058;13.826;2023-05-07T14:02:52;25.50;59.80
64620;DHT22;51029;51.058;13.826;2023-05-07T14:05:18;24.10;66.00
64620;DHT22;51029;51.058;13.826;2023-05-07T14:07:43;23.10;71.10
64620;DHT22;51029;51.058;13.826;2023-05-07T14:10:09;23.20;74.10
64620;DHT22;51029;51.058;13.826;2023-05-07T14:12:36;23.40;73.00
64620;DHT22;51029;51.058;13.826;2023-05-07T14:15:02;24.00;73.10
64620;DHT22;51029;51.058;13.826;2023-05-07T14:17:28;25.60;70.30
64620;DHT22;51029;51.058;13.826;2023-05-07T14:19:54;27.40;61.70
64620;DHT22;51029;51.058;13.826;2023-05-07T14:22:21;27.70;58.50
64620;DHT22;51029;51.058;13.826;2023-05-07T14:24:47;28.60;55.40
64620;DHT22;51029;51.058;13.826;2023-05-07T14:27:13;29.00;53.50
64620;DHT22;51029;51.058;13.826;2023-05-07T14:29:38;28.90;52.60
64620;DHT22;51029;51.058;13.826;2023-05-07T14:32:05;29.50;51.40
64620;DHT22;51029;51.058;13.826;2023-05-07T14:34:31;30.30;49.70
64620;DHT22;51029;51.058;13.826;2023-05-07T14:36:56;29.90;48.90
64620;DHT22;51029;51.058;13.826;2023-05-07T14:39:22;30.80;48.00
64620;DHT22;51029;51.058;13.826;2023-05-07T14:41:47;31.00;46.80
64620;DHT22;51029;51.058;13.826;2023-05-07T14:44:13;30.90;47.00
64620;DHT22;51029;51.058;13.826;2023-05-07T14:46:38;29.80;47.70
64620;DHT22;51029;51.058;13.826;2023-05-07T14:49:04;30.20;47.90
64620;DHT22;51029;51.058;13.826;2023-05-07T14:51:30;28.80;48.30
64620;DHT22;51029;51.058;13.826;2023-05-07T14:53:56;27.90;51.00
64620;DHT22;51029;51.058;13.826;2023-05-07T14:56:21;26.50;52.40
64620;DHT22;51029;51.058;13.826;2023-05-07T14:58:47;24.80;57.30
64620;DHT22;51029;51.058;13.826;2023-05-07T15:01:13;23.90;62.20
64620;DHT22;51029;51.058;13.826;2023-05-07T15:03:39;22.30;66.40
64620;DHT22;51029;51.058;13.826;2023-05-07T15:06:05;20.90;72.90
64620;DHT22;51029;51.058;13.826;2023-05-07T15:08:30;20.10;79.20
64620;DHT22;51029;51.058;13.826;2023-05-07T15:10:56;20.10;83.20
64620;DHT22;51029;51.058;13.826;2023-05-07T15:13:22;20.20;84.40
64620;DHT22;51029;51.058;13.826;2023-05-07T15:15:47;20.40;85.00
64620;DHT22;51029;51.058;13.826;2023-05-07T15:18:15;20.10;87.50
64620;DHT22;51029;51.058;13.826;2023-05-07T15:20:41;19.70;90.10
64620;DHT22;51029;51.058;13.826;2023-05-07T15:23:08;19.20;90.60